KMMI/MMI METAR and TAF weather

Enter ICAO airport designator
Station Type Date Time Source
KMMI METAR 2024/02/21 00:35 UTC NOAA

KMMI 210035Z AUTO 00000KT 10SM FEW034 FEW041 SCT055 06/M04 A3027 RMK A01


Station Type Date Time Source
KMMI Decoded METAR 2024/02/21 00:35 UTC NOAA

Station name not available
Feb 20, 2024 - 07:35 PM EST / 2024.02.21 0035 UTC
Wind: Calm:0
Visibility: 10 mile(s):0
Sky conditions: partly cloudy
Temperature: 42 F (6 C)
Dew Point: 24 F (-4 C)
Relative Humidity: 48%
Pressure (altimeter): 30.27 in. Hg (1025 hPa)
ob: KMMI 210035Z AUTO 00000KT 10SM FEW034 FEW041 SCT055 06/M04 A3027 RMK A01
cycle: 0

Station Type Date Time Source
KMMI TAF UTC NOAA

Error!

Example: see airport list